Time;durP1;ratioP1;P1;durP2;ratioP2;P2;SDS_P1;SDS_P2;PMS_P1;PMS_P2;Temp;Humidity;BMP_temperature;BMP_pressure;BME280_temperature;BME280_humidity;BME280_pressure;Samples;Min_cycle;Max_cycle;Signal;HPM_P1;HPM_P2
2023/10/08 00:01:18;;;;;;;0.45;0.45;;;;;;;19.35;43.31;99999.88;4474891;32;34407;-81
2023/10/08 00:03:50;;;;;;;1.27;0.47;;;;;;;19.64;42.57;100000.31;4464347;32;33860;-81
2023/10/08 00:06:20;;;;;;;7.03;0.30;;;;;;;19.56;42.62;99994.69;4474250;32;33532;-81
2023/10/08 00:08:49;;;;;;;2.55;0.20;;;;;;;19.64;42.43;99997.62;4463836;32;33753;-81
2023/10/08 00:11:18;;;;;;;2.25;0.82;;;;;;;19.54;43.15;99988.59;4462943;32;34661;-81
2023/10/08 00:13:48;;;;;;;1.55;0.70;;;;;;;19.51;43.63;99983.47;4461464;32;33909;-81
2023/10/08 00:16:17;;;;;;;0.60;0.57;;;;;;;19.54;43.63;99977.87;4462456;32;33288;-81
2023/10/08 00:18:49;;;;;;;0.62;0.62;;;;;;;19.46;43.93;99985.66;4477530;32;33928;-81
2023/10/08 00:21:26;;;;;;;0.13;0.13;;;;;;;19.39;43.80;99984.44;4461183;32;33686;-81
2023/10/08 00:23:57;;;;;;;0.20;0.20;;;;;;;19.41;43.66;99974.44;4463172;32;33829;-81
2023/10/08 00:26:29;;;;;;;0.50;0.50;;;;;;;19.30;44.04;99974.44;4464122;32;33049;-81
2023/10/08 00:28:59;;;;;;;0.85;0.70;;;;;;;19.23;44.21;99974.06;4453058;32;33061;-81
2023/10/08 00:31:32;;;;;;;2.20;0.80;;;;;;;19.11;43.74;99978.50;4462626;32;33173;-81
2023/10/08 00:33:59;;;;;;;0.50;0.50;;;;;;;19.26;42.50;99976.47;4462016;32;34538;-81
2023/10/08 00:36:27;;;;;;;0.30;0.20;;;;;;;19.33;43.29;99974.19;4473852;32;33266;-81
2023/10/08 00:38:59;;;;;;;3.12;1.02;;;;;;;19.43;43.28;99975.19;4462447;32;34588;-81
2023/10/08 00:41:32;;;;;;;0.10;0.10;;;;;;;19.19;42.62;99972.59;4462780;32;32698;-81
2023/10/08 00:44:00;;;;;;;0.00;0.00;;;;;;;19.24;40.35;99964.19;4472656;32;33792;-81
2023/10/08 00:46:32;;;;;;;0.45;0.37;;;;;;;19.21;40.91;99967.09;4460087;32;32731;-81
2023/10/08 00:49:19;;;;;;;1.27;0.88;;;;;;;19.29;41.29;99962.03;4475175;32;33600;-81
2023/10/08 00:51:59;;;;;;;0.13;0.13;;;;;;;19.30;40.73;99950.34;4463720;32;33932;-81
2023/10/08 00:54:32;;;;;;;0.05;0.05;;;;;;;19.72;37.77;99942.63;4475886;32;33896;-81
2023/10/08 00:57:04;;;;;;;0.45;0.37;;;;;;;19.90;37.97;99947.37;4461175;32;33324;-81
2023/10/08 00:59:45;;;;;;;0.65;0.65;;;;;;;20.43;37.75;99954.69;4477654;32;33873;-81
2023/10/08 01:02:19;;;;;;;0.47;0.37;;;;;;;20.01;38.80;99959.91;4476158;32;33588;-81
2023/10/08 01:04:50;;;;;;;1.05;0.85;;;;;;;20.00;38.66;99949.31;4462570;32;33712;-81
2023/10/08 01:07:18;;;;;;;3.03;0.52;;;;;;;19.70;39.78;99950.75;4459904;32;33806;-81
2023/10/08 01:09:56;;;;;;;0.00;0.00;;;;;;;19.71;40.56;99957.84;4460818;32;34243;-81
2023/10/08 01:12:33;;;;;;;0.37;0.37;;;;;;;19.47;41.08;99952.56;4463999;32;33927;-83
2023/10/08 01:15:17;;;;;;;2.72;0.85;;;;;;;19.61;40.66;99951.50;4475541;31;32968;-83
2023/10/08 01:17:57;;;;;;;1.33;1.23;;;;;;;19.38;41.11;99947.91;4459914;32;32255;-83
2023/10/08 01:20:34;;;;;;;0.90;0.90;;;;;;;19.47;40.30;99936.50;4463371;32;33057;-83
2023/10/08 01:23:09;;;;;;;0.60;0.40;;;;;;;19.38;41.01;99943.41;4450393;32;32650;-83
2023/10/08 01:25:38;;;;;;;0.00;0.00;;;;;;;19.42;40.85;99938.69;4458683;32;34672;-84
2023/10/08 01:30:54;;;;;;;4.85;1.15;;;;;;;19.34;41.25;99938.41;4474161;32;33889;-83
2023/10/08 01:33:26;;;;;;;0.57;0.57;;;;;;;19.33;40.52;99936.72;4457670;32;32997;-83
2023/10/08 01:35:55;;;;;;;0.10;0.10;;;;;;;19.23;40.66;99916.97;4461757;32;33349;-83
2023/10/08 01:38:26;;;;;;;1.80;0.30;;;;;;;19.43;39.51;99918.97;4466023;32;32834;-83
2023/10/08 01:40:53;;;;;;;0.20;0.20;;;;;;;19.52;39.20;99912.88;4461686;32;33858;-81
2023/10/08 01:43:22;;;;;;;0.55;0.40;;;;;;;19.72;38.27;99922.03;4460265;32;34841;-81
2023/10/08 01:45:52;;;;;;;0.25;0.22;;;;;;;19.91;37.94;99921.41;4465630;32;33132;-81
2023/10/08 01:48:25;;;;;;;0.30;0.30;;;;;;;20.23;37.36;99915.28;4463062;32;33379;-80
2023/10/08 01:51:01;;;;;;;0.17;0.17;;;;;;;19.97;38.83;99904.84;4462028;32;33820;-81
2023/10/08 01:53:30;;;;;;;0.80;0.80;;;;;;;20.19;37.35;99898.59;4460298;32;33592;-80
2023/10/08 01:55:58;;;;;;;0.60;0.60;;;;;;;20.11;38.25;99893.84;4464972;32;34600;-81
2023/10/08 01:58:26;;;;;;;0.13;0.13;;;;;;;20.11;38.70;99898.34;4474079;32;33809;-81
2023/10/08 02:00:59;;;;;;;0.35;0.35;;;;;;;19.94;39.08;99894.37;4475228;32;32946;-81
2023/10/08 02:03:27;;;;;;;1.55;1.23;;;;;;;19.99;39.34;99892.19;4473487;32;33077;-81
2023/10/08 02:05:58;;;;;;;0.88;0.85;;;;;;;19.75;40.16;99897.69;4474884;32;33567;-80
2023/10/08 02:08:27;;;;;;;0.35;0.32;;;;;;;19.77;39.96;99889.53;4477625;32;34141;-81
2023/10/08 02:10:55;;;;;;;1.20;0.47;;;;;;;19.97;38.77;99890.59;4478194;32;34211;-81
2023/10/08 02:13:24;;;;;;;0.15;0.15;;;;;;;20.23;37.87;99883.09;4461954;32;34159;-80
2023/10/08 02:15:52;;;;;;;0.35;0.35;;;;;;;20.17;38.01;99889.78;4463442;32;34350;-81
2023/10/08 02:18:23;;;;;;;4.68;1.37;;;;;;;20.27;38.28;99890.78;4461639;32;33443;-81
2023/10/08 02:20:51;;;;;;;3.30;1.83;;;;;;;20.04;38.52;99879.25;4474947;32;32884;-81
2023/10/08 02:23:19;;;;;;;0.28;0.28;;;;;;;20.28;37.77;99880.88;4447986;32;33146;-80
2023/10/08 02:25:47;;;;;;;0.55;0.25;;;;;;;20.31;37.16;99869.88;4463259;32;34164;-80
2023/10/08 02:28:18;;;;;;;0.28;0.20;;;;;;;20.43;37.52;99868.88;4460584;32;34991;-80
2023/10/08 02:30:46;;;;;;;0.90;0.90;;;;;;;20.40;37.46;99869.13;4461179;32;34574;-80
2023/10/08 02:33:13;;;;;;;2.35;1.10;;;;;;;20.23;37.88;99872.37;4472249;32;32727;-80
2023/10/08 02:35:43;;;;;;;0.00;0.00;;;;;;;20.39;37.39;99872.78;4477493;32;34635;-81
2023/10/08 02:38:18;;;;;;;0.60;0.57;;;;;;;20.30;37.15;99865.50;4464445;32;32347;-80
2023/10/08 02:40:47;;;;;;;0.30;0.17;;;;;;;20.36;37.33;99862.31;4477215;32;33530;-80
2023/10/08 02:43:17;;;;;;;0.55;0.43;;;;;;;20.18;37.40;99860.19;4461231;32;34558;-80
2023/10/08 02:45:49;;;;;;;4.10;1.40;;;;;;;20.44;36.91;99851.81;4463044;31;32799;-80
2023/10/08 02:48:20;;;;;;;0.00;0.00;;;;;;;20.56;36.59;99853.50;4463315;32;33916;-81
2023/10/08 02:50:48;;;;;;;3.40;1.60;;;;;;;20.62;36.50;99852.97;4478403;32;32181;-80
2023/10/08 02:53:20;;;;;;;0.57;0.57;;;;;;;20.75;36.36;99862.66;4474074;32;34309;-80
2023/10/08 02:55:49;;;;;;;0.82;0.52;;;;;;;20.78;36.21;99857.88;4461389;32;33461;-81
2023/10/08 02:58:18;;;;;;;0.28;0.28;;;;;;;20.74;36.64;99877.06;4464954;32;33783;-81
2023/10/08 03:00:48;;;;;;;0.88;0.62;;;;;;;20.92;36.19;99865.59;4464689;32;33766;-80
2023/10/08 03:03:18;;;;;;;0.50;0.50;;;;;;;20.96;36.14;99855.47;4476708;32;35340;-81
2023/10/08 03:05:49;;;;;;;0.22;0.22;;;;;;;21.19;35.97;99854.31;4475367;32;34012;-81
2023/10/08 03:08:20;;;;;;;0.20;0.20;;;;;;;21.25;35.77;99844.03;4478150;32;34023;-81
2023/10/08 03:11:02;;;;;;;0.08;0.00;;;;;;;21.25;35.99;99849.41;4477107;32;33562;-82
2023/10/08 03:13:30;;;;;;;0.27;0.20;;;;;;;21.02;36.16;99836.13;4456145;32;34121;-81
2023/10/08 03:18:36;;;;;;;0.32;0.32;;;;;;;21.23;36.02;99838.81;4473275;32;33324;-81
2023/10/08 03:21:19;;;;;;;32.08;2.10;;;;;;;21.39;35.73;99844.53;4466880;32;32983;-81
2023/10/08 03:23:51;;;;;;;0.32;0.32;;;;;;;21.50;35.72;99829.31;4475078;32;34621;-82
2023/10/08 03:26:33;;;;;;;1.45;1.35;;;;;;;21.23;36.12;99831.59;4461772;32;34296;-81
2023/10/08 03:29:08;;;;;;;0.20;0.20;;;;;;;21.27;36.06;99828.63;4472254;32;33450;-82
2023/10/08 03:34:18;;;;;;;0.60;0.60;;;;;;;21.13;36.31;99825.31;4462721;32;33414;-81
2023/10/08 03:36:49;;;;;;;0.45;0.45;;;;;;;21.39;36.13;99831.13;4453855;32;33021;-81
2023/10/08 03:39:18;;;;;;;0.50;0.30;;;;;;;21.34;36.31;99813.72;4476762;32;33802;-81
2023/10/08 03:42:06;;;;;;;0.60;0.60;;;;;;;21.28;36.68;99816.91;4462802;32;32903;-81
2023/10/08 03:44:37;;;;;;;0.68;0.43;;;;;;;21.44;36.22;99806.53;4463655;32;32871;-81
2023/10/08 03:47:10;;;;;;;0.80;0.37;;;;;;;21.37;36.32;99810.75;4474941;32;33782;-82
2023/10/08 03:49:45;;;;;;;0.10;0.10;;;;;;;20.95;37.27;99806.28;4463372;32;34087;-81
2023/10/08 03:52:13;;;;;;;4.45;0.73;;;;;;;21.14;36.84;99802.84;4464580;32;33483;-81
2023/10/08 03:54:48;;;;;;;0.47;0.47;;;;;;;21.07;37.36;99792.78;4472095;32;33715;-81
2023/10/08 03:57:25;;;;;;;0.25;0.25;;;;;;;21.17;36.99;99789.19;4475391;32;35860;-82
2023/10/08 03:59:58;;;;;;;0.17;0.17;;;;;;;21.37;36.49;99791.97;4463383;32;34136;-81
2023/10/08 04:02:40;;;;;;;0.10;0.10;;;;;;;21.16;37.40;99784.75;4475375;32;33434;-81
2023/10/08 04:05:19;;;;;;;3.27;1.00;;;;;;;21.44;36.70;99785.88;4463932;32;33720;-82
2023/10/08 04:13:14;;;;;;;0.50;0.50;;;;;;;21.06;37.81;99791.94;4475234;32;33792;-81
2023/10/08 04:15:42;;;;;;;1.70;0.90;;;;;;;21.05;37.48;99773.28;4463181;32;34015;-82
2023/10/08 04:18:10;;;;;;;0.43;0.20;;;;;;;21.15;37.19;99790.28;4462613;32;33499;-83
2023/10/08 04:20:38;;;;;;;0.37;0.37;;;;;;;21.17;37.44;99794.53;4474681;32;34417;-82
2023/10/08 04:23:18;;;;;;;0.73;0.65;;;;;;;21.26;37.04;99789.31;4462497;32;34022;-82
2023/10/08 04:25:46;;;;;;;0.60;0.47;;;;;;;21.26;37.06;99771.38;4474910;32;33616;-83
2023/10/08 04:28:17;;;;;;;0.10;0.10;;;;;;;21.03;37.60;99773.44;4448656;32;32817;-82
2023/10/08 04:30:45;;;;;;;0.43;0.43;;;;;;;21.06;37.49;99781.19;4475343;32;32987;-82
2023/10/08 04:33:13;;;;;;;0.82;0.60;;;;;;;21.10;37.53;99782.63;4449722;32;33644;-82
2023/10/08 04:35:48;;;;;;;0.30;0.30;;;;;;;20.97;37.76;99787.37;4463585;32;33561;-82
2023/10/08 04:38:21;;;;;;;0.88;0.82;;;;;;;21.07;37.61;99788.25;4460657;32;34527;-81
2023/10/08 04:40:53;;;;;;;3.70;2.28;;;;;;;21.26;37.79;99779.44;4472121;32;33572;-82
2023/10/08 04:43:27;;;;;;;0.57;0.50;;;;;;;21.39;37.17;99792.66;4464546;32;34683;-83
2023/10/08 04:45:57;;;;;;;0.93;0.93;;;;;;;21.42;37.13;99777.12;4474366;32;34672;-82
2023/10/08 04:48:27;;;;;;;3.80;2.10;;;;;;;21.47;37.11;99769.50;4459813;32;34654;-83
2023/10/08 04:50:58;;;;;;;0.85;0.75;;;;;;;21.57;36.87;99780.28;4464025;32;33276;-83
2023/10/08 04:53:54;;;;;;;0.57;0.53;;;;;;;21.68;36.69;99776.62;4463931;32;33242;-83
2023/10/08 04:56:19;;;;;;;2.47;0.35;;;;;;;21.69;37.23;99779.16;4475026;32;33930;-82
2023/10/08 04:58:47;;;;;;;0.22;0.20;;;;;;;21.63;36.69;99785.09;4449419;32;33683;-82
2023/10/08 05:01:27;;;;;;;1.00;0.77;;;;;;;21.50;36.83;99775.59;4472885;32;32602;-82
2023/10/08 05:09:22;;;;;;;0.28;0.28;;;;;;;21.76;36.26;99773.25;4462283;32;32649;-82
2023/10/08 05:17:11;;;;;;;1.35;0.85;;;;;;;21.66;36.49;99763.34;4470096;32;33797;-82
2023/10/08 05:30:28;;;;;;;0.17;0.17;;;;;;;21.78;37.43;99776.62;4462872;32;33116;-81
2023/10/08 05:55:22;;;;;;;1.20;0.57;;;;;;;22.19;37.09;99806.00;4472505;32;33770;-82
2023/10/08 05:57:52;;;;;;;1.12;0.77;;;;;;;22.59;36.49;99804.97;4462390;32;34330;-81
2023/10/08 06:03:09;;;;;;;0.60;0.60;;;;;;;22.46;36.51;99821.44;4459624;32;33300;-82
2023/10/08 06:06:02;;;;;;;0.32;0.32;;;;;;;22.51;36.90;99820.16;4455432;32;33157;-82
2023/10/08 06:08:38;;;;;;;3.78;0.88;;;;;;;22.28;37.15;99828.50;4465420;32;36017;-82
2023/10/08 06:11:17;;;;;;;0.88;0.85;;;;;;;22.59;36.83;99820.28;4450458;32;33293;-82
2023/10/08 06:13:50;;;;;;;0.15;0.15;;;;;;;22.30;36.94;99828.38;4474070;31;34348;-82
2023/10/08 06:16:31;;;;;;;0.28;0.22;;;;;;;22.68;36.81;99836.41;4472989;32;33085;-81
2023/10/08 06:18:59;;;;;;;0.35;0.35;;;;;;;22.53;36.89;99843.22;4451411;32;33091;-82
2023/10/08 06:21:29;;;;;;;4.37;1.15;;;;;;;22.55;37.00;99849.34;4451420;32;34254;-82
2023/10/08 06:23:59;;;;;;;0.75;0.75;;;;;;;22.64;37.15;99848.44;4449143;32;33385;-83
2023/10/08 06:26:33;;;;;;;1.45;1.08;;;;;;;22.74;36.61;99845.75;4450802;32;35321;-82
2023/10/08 06:29:18;;;;;;;2.22;1.15;;;;;;;22.54;36.66;99854.84;4450715;32;33461;-83
2023/10/08 06:31:51;;;;;;;0.40;0.40;;;;;;;22.54;36.84;99850.31;4450122;32;35199;-83
2023/10/08 06:34:21;;;;;;;;;;;;;;;22.44;37.27;99852.16;4446795;32;33259;-82
2023/10/08 06:36:53;;;;;;;0.62;0.62;;;;;;;22.55;37.33;99862.78;4448267;32;32481;-83
2023/10/08 06:39:47;;;;;;;0.43;0.43;;;;;;;22.77;37.00;99861.63;4449112;32;33443;-82
2023/10/08 06:42:17;;;;;;;0.30;0.20;;;;;;;22.90;36.79;99861.38;4447357;32;33056;-82
2023/10/08 06:44:48;;;;;;;0.80;0.62;;;;;;;22.97;36.55;99867.84;4461330;32;32038;-82
2023/10/08 06:47:18;;;;;;;2.37;1.20;;;;;;;22.87;36.92;99856.22;4448371;32;33629;-83
2023/10/08 06:49:47;;;;;;;2.05;0.80;;;;;;;22.96;37.04;99876.94;4447586;32;33267;-82
2023/10/08 06:52:15;;;;;;;0.60;0.40;;;;;;;23.11;37.17;99864.69;4459416;32;34173;-82
2023/10/08 06:54:46;;;;;;;0.75;0.43;;;;;;;23.03;37.01;99866.44;4459661;32;33997;-82
2023/10/08 06:57:19;;;;;;;0.40;0.40;;;;;;;23.14;36.71;99877.88;4447869;32;32804;-82
2023/10/08 06:59:50;;;;;;;1.87;0.98;;;;;;;22.79;37.04;99880.31;4445592;32;34399;-82
2023/10/08 07:02:20;;;;;;;1.85;0.82;;;;;;;22.91;36.87;99873.81;4472912;32;34520;-82
2023/10/08 07:04:50;;;;;;;0.20;0.17;;;;;;;23.03;36.74;99877.22;4453025;32;34991;-82
2023/10/08 07:07:19;;;;;;;0.22;0.22;;;;;;;23.02;36.99;99862.88;4447702;32;32920;-82
2023/10/08 07:09:51;;;;;;;5.68;1.10;;;;;;;23.06;37.31;99867.00;4448998;32;35499;-82
2023/10/08 07:12:19;;;;;;;1.42;0.98;;;;;;;22.84;37.70;99878.06;4463898;32;35074;-81
2023/10/08 07:14:47;;;;;;;1.65;0.95;;;;;;;22.22;38.89;99872.13;4462036;32;34726;-82
2023/10/08 07:17:19;;;;;;;2.17;0.82;;;;;;;22.64;38.59;99859.22;4451564;32;32429;-82
2023/10/08 07:19:50;;;;;;;2.47;1.02;;;;;;;22.71;38.50;99862.22;4451554;32;33982;-81
2023/10/08 07:22:22;;;;;;;2.40;1.10;;;;;;;22.71;38.52;99857.66;4462204;32;33083;-81
2023/10/08 07:24:52;;;;;;;0.73;0.73;;;;;;;22.62;38.90;99857.69;4465440;31;34493;-82
2023/10/08 07:27:21;;;;;;;0.47;0.47;;;;;;;22.65;38.88;99847.47;4463168;32;34441;-82
2023/10/08 07:29:50;;;;;;;1.75;1.42;;;;;;;22.59;39.14;99857.94;4458460;32;32925;-82
2023/10/08 07:32:18;;;;;;;3.17;1.20;;;;;;;22.64;39.01;99856.53;4447265;32;33279;-82
2023/10/08 07:34:47;;;;;;;1.05;0.95;;;;;;;22.95;38.46;99865.31;4461535;32;33270;-82
2023/10/08 07:37:16;;;;;;;0.45;0.45;;;;;;;22.79;38.74;99864.16;4461763;32;33716;-82
2023/10/08 07:39:46;;;;;;;1.40;1.15;;;;;;;23.04;38.38;99876.22;4447498;32;34278;-82
2023/10/08 07:42:15;;;;;;;0.62;0.62;;;;;;;23.10;38.38;99868.41;4447818;32;34533;-83
2023/10/08 07:44:43;;;;;;;0.10;0.10;;;;;;;23.05;38.57;99865.28;4460699;32;33165;-82
2023/10/08 07:47:14;;;;;;;0.40;0.40;;;;;;;23.34;37.85;99858.97;4448471;32;32242;-82
2023/10/08 07:49:43;;;;;;;0.15;0.10;;;;;;;23.18;38.05;99860.44;4460633;32;33491;-82
2023/10/08 07:52:15;;;;;;;4.10;1.30;;;;;;;23.46;38.26;99847.03;4448511;32;36408;-82
2023/10/08 07:54:44;;;;;;;0.30;0.30;;;;;;;23.57;37.64;99846.81;4452395;32;32678;-83
2023/10/08 07:57:17;;;;;;;0.88;0.30;;;;;;;23.61;37.48;99853.63;4449341;32;32804;-83
2023/10/08 07:59:48;;;;;;;22.98;1.25;;;;;;;23.76;37.47;99849.44;4442659;32;33688;-82
2023/10/08 08:02:17;;;;;;;3.45;1.15;;;;;;;23.98;37.91;99852.75;4462040;32;34231;-82
2023/10/08 08:04:51;;;;;;;1.90;1.77;;;;;;;24.04;37.47;99854.81;4461071;32;34752;-82
2023/10/08 08:07:19;;;;;;;1.55;0.93;;;;;;;23.94;37.78;99852.19;4449330;32;32536;-82
2023/10/08 08:09:58;;;;;;;0.82;0.40;;;;;;;23.50;38.52;99860.06;4448979;32;33735;-82
2023/10/08 08:12:28;;;;;;;0.55;0.32;;;;;;;23.59;38.56;99866.38;4475565;32;34776;-82
2023/10/08 08:14:57;;;;;;;0.43;0.28;;;;;;;23.54;38.18;99839.03;4475173;32;34436;-82
2023/10/08 08:17:25;;;;;;;0.57;0.57;;;;;;;23.55;38.52;99846.13;4449028;32;33137;-83
2023/10/08 08:19:53;;;;;;;0.15;0.10;;;;;;;23.40;38.66;99858.38;4448691;32;33233;-82
2023/10/08 08:22:22;;;;;;;1.95;0.98;;;;;;;23.73;39.06;99859.66;4475419;32;34374;-82
2023/10/08 08:24:55;;;;;;;0.40;0.40;;;;;;;23.72;38.60;99864.22;4452366;32;33276;-82
2023/10/08 08:27:31;;;;;;;2.08;1.00;;;;;;;23.60;39.35;99865.41;4450559;32;32862;-82
2023/10/08 08:30:10;;;;;;;2.03;1.87;;;;;;;23.57;39.66;99863.00;4450185;32;33068;-82
2023/10/08 08:32:47;;;;;;;0.45;0.25;;;;;;;23.85;39.32;99868.44;4447672;32;33974;-82
2023/10/08 08:35:20;;;;;;;0.52;0.52;;;;;;;23.72;39.50;99864.22;4464771;32;32974;-82
2023/10/08 08:37:54;;;;;;;5.35;1.17;;;;;;;23.64;39.79;99874.03;4450709;32;33022;-82
2023/10/08 08:40:24;;;;;;;0.60;0.60;;;;;;;23.16;40.86;99870.50;4460929;32;33436;-82
2023/10/08 08:42:54;;;;;;;0.10;0.10;;;;;;;23.45;40.28;99870.44;4449569;32;33331;-82
2023/10/08 08:45:26;;;;;;;2.80;1.45;;;;;;;23.41;40.31;99854.72;4449284;32;34225;-82
2023/10/08 08:47:55;;;;;;;1.92;0.57;;;;;;;23.69;40.05;99851.06;4476205;32;33248;-82
2023/10/08 08:50:26;;;;;;;1.10;1.00;;;;;;;23.80;40.18;99854.56;4451528;32;33325;-83
2023/10/08 08:53:00;;;;;;;0.85;0.60;;;;;;;23.81;40.19;99861.63;4456597;32;33783;-82
2023/10/08 08:55:29;;;;;;;1.20;1.10;;;;;;;23.97;39.83;99861.81;4448590;32;33243;-82
2023/10/08 08:57:58;;;;;;;0.40;0.32;;;;;;;24.08;40.08;99858.06;4447824;32;32629;-82
2023/10/08 09:00:29;;;;;;;0.85;0.68;;;;;;;24.35;40.09;99860.69;4460308;32;33129;-83
2023/10/08 09:02:58;;;;;;;0.32;0.32;;;;;;;24.39;39.43;99855.87;4449729;32;34407;-83
2023/10/08 09:05:33;;;;;;;0.55;0.50;;;;;;;24.50;39.30;99852.97;4448708;32;33855;-82
2023/10/08 09:08:04;;;;;;;0.10;0.10;;;;;;;24.28;40.11;99860.47;4462210;32;33053;-82
2023/10/08 09:10:37;;;;;;;3.33;0.73;;;;;;;24.72;39.25;99859.72;4464441;32;33203;-82
2023/10/08 09:13:11;;;;;;;1.58;0.13;;;;;;;24.17;40.29;99882.28;4460978;32;32828;-82
2023/10/08 09:15:39;;;;;;;0.05;0.05;;;;;;;23.91;41.27;99895.63;4448191;32;32946;-81
2023/10/08 09:18:08;;;;;;;0.55;0.55;;;;;;;24.04;40.66;99884.50;4458504;32;32436;-82
2023/10/08 09:20:43;;;;;;;1.58;0.70;;;;;;;24.03;40.87;99904.38;4460599;32;32858;-82
2023/10/08 09:23:13;;;;;;;0.28;0.22;;;;;;;23.84;41.50;99917.97;4449594;32;33283;-82
2023/10/08 09:25:43;;;;;;;0.20;0.10;;;;;;;23.38;42.35;99912.41;4447598;32;33480;-82
2023/10/08 09:28:14;;;;;;;0.00;0.00;;;;;;;23.48;42.45;99923.16;4460515;32;32962;-82
2023/10/08 09:30:44;;;;;;;0.40;0.30;;;;;;;24.11;40.89;99928.72;4466685;32;33430;-82
2023/10/08 09:33:14;;;;;;;0.10;0.10;;;;;;;24.11;41.21;99941.38;4476382;32;34280;-83
2023/10/08 09:35:45;;;;;;;1.25;0.82;;;;;;;23.87;41.74;99941.91;4460869;32;33710;-82
2023/10/08 09:38:15;;;;;;;0.10;0.10;;;;;;;23.53;42.37;99950.53;4465625;32;32939;-82
2023/10/08 09:40:46;;;;;;;1.85;0.55;;;;;;;23.63;42.15;99962.13;4473128;32;34656;-82
2023/10/08 09:43:16;;;;;;;0.70;0.52;;;;;;;23.66;42.15;99969.13;4461578;32;34485;-82
2023/10/08 09:45:53;;;;;;;0.95;0.95;;;;;;;23.24;43.06;99967.59;4454034;32;33869;-82
2023/10/08 09:48:23;;;;;;;1.37;1.27;;;;;;;23.47;42.82;99976.22;4454940;32;32057;-82
2023/10/08 09:50:52;;;;;;;0.37;0.00;;;;;;;23.25;43.36;99958.53;4454883;32;33291;-82
2023/10/08 09:53:31;;;;;;;0.30;0.30;;;;;;;22.75;44.71;99965.91;4461980;32;33462;-82
2023/10/08 09:55:59;;;;;;;0.85;0.70;;;;;;;23.45;43.48;99958.47;4459484;32;34679;-82
2023/10/08 09:58:28;;;;;;;0.20;0.20;;;;;;;23.47;43.58;99975.38;4475037;32;32432;-82
2023/10/08 10:00:57;;;;;;;0.00;0.00;;;;;;;23.58;43.33;99971.66;4458280;32;33548;-82
2023/10/08 10:03:26;;;;;;;1.33;0.70;;;;;;;23.37;44.19;99972.69;4471300;32;33998;-80
2023/10/08 10:05:59;;;;;;;0.00;0.00;;;;;;;23.55;43.78;99996.19;4458605;32;33825;-81
2023/10/08 10:12:35;;;;;;;0.37;0.37;;;;;;;23.51;44.36;100018.06;4458274;32;33925;-80
2023/10/08 10:18:13;;;;;;;23.30;1.85;;;;;;;22.29;47.89;100066.06;4443282;32;32485;-80
2023/10/08 10:21:02;;;;;;;0.17;0.17;;;;;;;22.86;46.46;100053.75;4459102;32;31516;-80
2023/10/08 10:23:45;;;;;;;0.03;0.03;;;;;;;22.64;46.49;100055.69;4460714;32;32226;-80
2023/10/08 10:26:33;;;;;;;0.52;0.52;;;;;;;22.34;47.49;100045.00;4449667;32;33264;-81
2023/10/08 10:29:10;;;;;;;0.28;0.25;;;;;;;22.27;48.02;100041.16;4473712;32;33877;-80
2023/10/08 10:31:53;;;;;;;0.17;0.15;;;;;;;22.18;48.25;100040.97;4474517;32;33192;-81
2023/10/08 10:34:28;;;;;;;0.00;0.00;;;;;;;22.32;47.38;100042.44;4475052;32;32980;-80
2023/10/08 10:39:55;;;;;;;0.32;0.32;;;;;;;22.33;47.37;100025.31;4473616;32;33429;-80
2023/10/08 10:42:23;;;;;;;0.00;0.00;;;;;;;22.74;46.70;100036.87;4485518;31;33139;-80
2023/10/08 10:44:53;;;;;;;2.55;0.20;;;;;;;22.81;45.53;100039.88;4473629;32;33616;-80
2023/10/08 10:52:32;;;;;;;0.30;0.17;;;;;;;22.39;46.27;100045.44;4474080;32;33601;-81
2023/10/08 10:57:43;;;;;;;0.30;0.10;;;;;;;22.77;45.38;100051.91;4463250;32;33008;-80
2023/10/08 11:03:23;;;;;;;0.40;0.40;;;;;;;22.58;45.15;100080.47;4427722;32;32793;-80
2023/10/08 11:05:59;;;;;;;0.00;0.00;;;;;;;22.35;45.71;100084.34;4456091;32;32858;-81
2023/10/08 11:08:34;;;;;;;0.00;0.00;;;;;;;22.48;45.58;100087.66;4447177;32;31202;-80
2023/10/08 11:11:06;;;;;;;0.00;0.00;;;;;;;22.40;45.05;100095.56;4474006;32;34225;-80
2023/10/08 11:13:38;;;;;;;0.00;0.00;;;;;;;22.42;44.79;100097.13;4472881;32;32870;-79
2023/10/08 11:16:13;;;;;;;0.00;0.00;;;;;;;22.34;44.20;100099.66;4470625;32;34273;-80
2023/10/08 11:18:47;;;;;;;0.00;0.00;;;;;;;22.20;43.43;100100.84;4472274;32;33770;-80
2023/10/08 11:21:16;;;;;;;0.00;0.00;;;;;;;21.48;45.43;100116.91;4463760;32;33408;-80
2023/10/08 11:24:08;;;;;;;0.00;0.00;;;;;;;22.02;43.82;100106.94;4472598;32;32524;-80
2023/10/08 11:26:54;;;;;;;0.00;0.00;;;;;;;21.61;44.72;100106.00;4472533;32;33617;-80
2023/10/08 11:29:25;;;;;;;0.00;0.00;;;;;;;21.58;44.75;100103.56;4459932;32;33267;-80
2023/10/08 11:31:53;;;;;;;0.00;0.00;;;;;;;21.33;44.56;100116.38;4470389;32;33324;-80
2023/10/08 11:34:24;;;;;;;0.00;0.00;;;;;;;21.42;43.03;100106.69;4472062;32;33639;-80
2023/10/08 11:36:55;;;;;;;0.00;0.00;;;;;;;21.61;41.86;100114.91;4473070;32;33498;-80
2023/10/08 11:39:23;;;;;;;0.00;0.00;;;;;;;21.35;41.55;100125.13;4462218;32;33363;-80
2023/10/08 11:42:02;;;;;;;0.00;0.00;;;;;;;21.87;40.16;100119.88;4472672;32;33934;-80
2023/10/08 11:44:35;;;;;;;0.05;0.05;;;;;;;21.25;41.22;100120.62;4462424;32;33392;-80
2023/10/08 11:47:11;;;;;;;0.00;0.00;;;;;;;21.06;41.14;100130.22;4449944;32;32789;-80
2023/10/08 11:49:46;;;;;;;0.00;0.00;;;;;;;21.23;40.56;100129.69;4471690;32;33864;-80
2023/10/08 11:52:15;;;;;;;0.00;0.00;;;;;;;21.03;40.76;100134.97;4465357;32;33781;-80
2023/10/08 11:54:44;;;;;;;0.00;0.00;;;;;;;20.47;41.41;100138.59;4459648;32;33132;-80
2023/10/08 11:57:13;;;;;;;0.00;0.00;;;;;;;20.58;41.35;100133.22;4473223;32;34683;-80
2023/10/08 11:59:41;;;;;;;0.80;0.20;;;;;;;20.50;41.99;100137.47;4459953;32;34470;-80
2023/10/08 12:02:09;;;;;;;0.00;0.00;;;;;;;20.55;41.70;100141.50;4472150;32;34676;-80
2023/10/08 12:04:37;;;;;;;0.00;0.00;;;;;;;20.78;41.12;100136.97;4459044;32;32955;-79
2023/10/08 12:07:07;;;;;;;0.00;0.00;;;;;;;20.06;42.58;100141.81;4459249;32;34336;-80
2023/10/08 12:09:37;;;;;;;0.00;0.00;;;;;;;20.50;41.43;100162.47;4454478;32;33999;-80
2023/10/08 12:12:09;;;;;;;0.00;0.00;;;;;;;20.38;41.42;100166.09;4457546;32;33807;-80
2023/10/08 12:14:37;;;;;;;0.00;0.00;;;;;;;20.57;40.55;100176.25;4468189;32;33021;-80
2023/10/08 12:17:11;;;;;;;0.25;0.25;;;;;;;20.33;40.59;100170.97;4457893;32;33817;-80
2023/10/08 12:19:40;;;;;;;0.00;0.00;;;;;;;19.96;41.46;100179.19;4448589;32;30912;-80
2023/10/08 12:22:08;;;;;;;0.00;0.00;;;;;;;19.95;41.47;100181.00;4467137;32;34625;-80
2023/10/08 12:24:38;;;;;;;0.10;0.10;;;;;;;19.71;41.75;100184.72;4446910;32;32275;-80
2023/10/08 12:27:06;;;;;;;0.00;0.00;;;;;;;19.21;42.93;100200.00;4469154;32;34030;-80
2023/10/08 12:29:35;;;;;;;0.00;0.00;;;;;;;19.64;41.87;100193.19;4470570;32;32845;-80
2023/10/08 12:32:08;;;;;;;0.00;0.00;;;;;;;19.47;42.30;100198.94;4467999;32;35316;-80
2023/10/08 12:34:37;;;;;;;0.10;0.10;;;;;;;19.58;41.99;100204.34;4467580;32;32591;-80
2023/10/08 12:37:07;;;;;;;0.00;0.00;;;;;;;19.61;42.08;100209.50;4456404;32;34469;-80
2023/10/08 12:39:44;;;;;;;0.00;0.00;;;;;;;19.53;42.61;100211.88;4447742;32;32874;-80
2023/10/08 12:42:12;;;;;;;0.10;0.10;;;;;;;19.44;42.86;100220.59;4469340;32;33770;-80
2023/10/08 12:44:40;;;;;;;0.20;0.20;;;;;;;19.54;42.07;100218.06;4457116;32;33033;-80
2023/10/08 12:47:08;;;;;;;0.00;0.00;;;;;;;19.37;42.80;100224.66;4444742;32;30814;-80
2023/10/08 12:49:36;;;;;;;0.00;0.00;;;;;;;19.26;42.93;100225.47;4443446;32;33342;-82
2023/10/08 12:52:14;;;;;;;0.00;0.00;;;;;;;19.55;42.37;100227.81;4446626;32;32838;-82
2023/10/08 12:54:47;;;;;;;0.00;0.00;;;;;;;19.37;42.29;100230.03;4456805;32;34414;-83
2023/10/08 12:57:18;;;;;;;0.00;0.00;;;;;;;19.18;42.78;100238.56;4442887;32;34139;-82
2023/10/08 12:59:51;;;;;;;0.00;0.00;;;;;;;18.88;43.18;100246.97;4449096;32;33595;-82
2023/10/08 13:02:20;;;;;;;0.00;0.00;;;;;;;19.64;41.20;100252.12;4445416;32;33337;-82
2023/10/08 13:04:48;;;;;;;0.00;0.00;;;;;;;19.16;42.33;100257.41;4457259;32;34869;-82
2023/10/08 13:07:21;;;;;;;0.75;0.43;;;;;;;19.17;41.89;100264.44;4468941;32;33287;-82
2023/10/08 13:09:50;;;;;;;0.80;0.10;;;;;;;19.40;41.64;100262.78;4473428;32;34111;-81
2023/10/08 13:12:18;;;;;;;0.35;0.35;;;;;;;19.15;41.92;100266.41;4443249;31;34159;-82
2023/10/08 13:14:46;;;;;;;0.00;0.00;;;;;;;18.97;42.47;100266.84;4445006;32;32807;-82